createdAt,value
2024-01-05T00:01:24.420Z,99669.69
2024-01-05T00:03:26.143Z,99676.66
2024-01-05T00:05:28.157Z,99671.47
2024-01-05T00:07:30.363Z,99692.56
2024-01-05T00:09:32.088Z,99684.75
2024-01-05T00:11:33.836Z,99682.88
2024-01-05T00:13:35.421Z,99683.72
2024-01-05T00:15:37.025Z,99684.59
2024-01-05T00:17:38.869Z,99685.50
2024-01-05T00:19:41.659Z,99686.34
2024-01-05T00:21:43.471Z,99691.72
2024-01-05T00:23:44.999Z,99698.69
2024-01-05T00:25:46.638Z,99687.38
2024-01-05T00:27:49.047Z,99689.84
2024-01-05T00:29:50.944Z,99686.34
2024-01-05T00:31:52.594Z,99681.19
2024-01-05T00:33:54.419Z,99699.72
2024-01-05T00:35:57.043Z,99695.19
2024-01-05T00:37:58.910Z,99683.03
2024-01-05T00:40:03.799Z,99688.97
2024-01-05T00:42:06.686Z,99695.19
2024-01-05T00:44:08.290Z,99697.94
2024-01-05T00:46:10.500Z,99691.81
2024-01-05T00:48:12.410Z,99693.53
2024-01-05T00:50:14.164Z,99702.53
2024-01-05T00:52:15.788Z,99705.84
2024-01-05T00:54:17.356Z,99705.06
2024-01-05T00:56:18.928Z,99709.34
2024-01-05T00:58:20.460Z,99703.19
2024-01-05T01:00:22.287Z,99702.38
2024-01-05T01:02:23.895Z,99708.47
2024-01-05T01:04:25.699Z,99708.47
2024-01-05T01:06:27.391Z,99716.38
2024-01-05T01:08:28.967Z,99719.00
2024-01-05T01:10:30.551Z,99725.22
2024-01-05T01:12:32.286Z,99719.09
2024-01-05T01:14:34.197Z,99719.09
2024-01-05T01:16:35.790Z,99734.00
2024-01-05T01:18:37.493Z,99718.25
2024-01-05T01:20:39.767Z,99735.75
2024-01-05T01:22:41.220Z,99728.88
2024-01-05T01:24:42.726Z,99730.94
2024-01-05T01:26:44.616Z,99732.44
2024-01-05T01:28:46.425Z,99733.38
2024-01-05T01:30:48.314Z,99728.03
2024-01-05T01:32:53.846Z,99737.72
2024-01-05T01:34:55.465Z,99734.16
2024-01-05T01:36:57.322Z,99743.84
2024-01-05T01:38:59.031Z,99746.50
2024-01-05T01:41:00.965Z,99740.34
2024-01-05T01:43:02.901Z,99737.81
2024-01-05T01:45:05.155Z,99744.88
2024-01-05T01:47:06.769Z,99733.47
2024-01-05T01:49:08.940Z,99749.38
2024-01-05T01:51:14.460Z,99744.13
2024-01-05T01:53:19.623Z,99737.25
2024-01-05T01:55:21.398Z,99736.38
2024-01-05T01:57:23.812Z,99748.44
2024-01-05T01:59:25.940Z,99738.84
2024-01-05T02:01:27.916Z,99747.69
2024-01-05T02:03:30.125Z,99749.53
2024-01-05T02:05:31.771Z,99753.06
2024-01-05T02:07:33.491Z,99748.72
2024-01-05T02:09:35.933Z,99761.78
2024-01-05T02:11:38.325Z,99747.69
2024-01-05T02:13:40.540Z,99742.91
2024-01-05T02:15:42.009Z,99751.34
2024-01-05T02:17:43.669Z,99747.84
2024-01-05T02:19:46.338Z,99757.44
2024-01-05T02:21:53.668Z,99751.25
2024-01-05T02:23:55.495Z,99747.00
2024-01-05T02:27:59.204Z,99743.44
2024-01-05T02:30:01.000Z,99749.72
2024-01-05T02:32:02.903Z,99754.06
2024-01-05T02:38:17.853Z,99756.63
2024-01-05T02:40:19.588Z,99746.06
2024-01-05T02:42:21.351Z,99758.38
2024-01-05T02:44:23.314Z,99757.69
2024-01-05T02:46:25.128Z,99758.53
2024-01-05T02:48:27.199Z,99771.66
2024-01-05T02:50:29.003Z,99769.88
2024-01-05T02:52:30.580Z,99762.00
2024-01-05T02:54:32.592Z,99775.19
2024-01-05T02:56:35.288Z,99766.38
2024-01-05T02:58:37.215Z,99761.19
2024-01-05T03:00:39.383Z,99770.78
2024-01-05T03:02:41.245Z,99777.91
2024-01-05T03:04:47.382Z,99780.66
2024-01-05T03:06:49.314Z,99783.19
2024-01-05T03:08:51.206Z,99781.47
2024-01-05T03:10:52.964Z,99777.91
2024-01-05T03:12:54.864Z,99774.50
2024-01-05T03:14:59.487Z,99776.13
2024-01-05T03:17:02.541Z,99785.00
2024-01-05T03:19:04.899Z,99784.91
2024-01-05T03:21:06.783Z,99787.63
2024-01-05T03:23:10.430Z,99776.31
2024-01-05T03:25:12.317Z,99783.28
2024-01-05T03:27:16.045Z,99780.66
2024-01-05T03:29:18.227Z,99785.91
2024-01-05T03:31:24.037Z,99786.75
2024-01-05T03:33:26.246Z,99779.78
2024-01-05T03:35:27.970Z,99782.50
2024-01-05T03:37:29.839Z,99781.00
2024-01-05T03:39:31.993Z,99781.00
2024-01-05T03:41:34.380Z,99782.69
2024-01-05T03:43:36.287Z,99785.16
2024-01-05T03:45:38.654Z,99779.03
2024-01-05T03:47:40.591Z,99773.84
2024-01-05T03:49:43.029Z,99785.34
2024-01-05T03:51:44.868Z,99774.13
2024-01-05T03:53:46.752Z,99779.28
2024-01-05T03:55:48.771Z,99784.47
2024-01-05T03:57:51.131Z,99796.81
2024-01-05T03:59:53.109Z,99806.47
2024-01-05T04:01:55.156Z,99796.88
2024-01-05T04:03:58.920Z,99795.94
2024-01-05T04:06:00.693Z,99809.09
2024-01-05T04:08:03.093Z,99812.69
2024-01-05T04:10:05.889Z,99806.66
2024-01-05T04:12:10.967Z,99811.00
2024-01-05T04:14:13.237Z,99811.00
2024-01-05T04:16:15.662Z,99809.34
2024-01-05T04:18:17.592Z,99816.53
2024-01-05T04:20:19.545Z,99817.34
2024-01-05T04:22:21.389Z,99808.69
2024-01-05T04:24:23.136Z,99802.75
2024-01-05T04:26:25.413Z,99816.53
2024-01-05T04:28:27.387Z,99810.38
2024-01-05T04:30:29.102Z,99808.63
2024-01-05T04:32:34.288Z,99809.53
2024-01-05T04:34:36.309Z,99797.31
2024-01-05T04:36:40.816Z,99796.47
2024-01-05T04:38:43.666Z,99804.38
2024-01-05T04:40:45.520Z,99807.84
2024-01-05T04:42:47.275Z,99804.38
2024-01-05T04:44:50.763Z,99807.00
2024-01-05T04:46:52.517Z,99810.47
2024-01-05T04:48:54.660Z,99812.34
2024-01-05T04:50:56.625Z,99809.69
2024-01-05T04:52:58.497Z,99813.28
2024-01-05T04:55:02.610Z,99824.56
2024-01-05T04:57:07.757Z,99816.88
2024-01-05T04:59:09.641Z,99822.03
2024-01-05T05:01:11.334Z,99821.25
2024-01-05T05:03:15.415Z,99825.59
2024-01-05T05:05:17.407Z,99822.13
2024-01-05T05:07:19.212Z,99827.41
2024-01-05T05:09:21.292Z,99823.91
2024-01-05T05:11:26.774Z,99832.66
2024-01-05T05:13:28.779Z,99831.81
2024-01-05T05:15:30.677Z,99830.88
2024-01-05T05:17:32.496Z,99827.47
2024-01-05T05:19:35.943Z,99827.56
2024-01-05T05:21:38.266Z,99835.38
2024-01-05T05:23:40.265Z,99833.75
2024-01-05T05:25:44.960Z,99837.31
2024-01-05T05:27:46.659Z,99833.75
2024-01-05T05:29:48.897Z,99831.13
2024-01-05T05:31:50.500Z,99833.75
2024-01-05T05:33:52.245Z,99832.03
2024-01-05T05:35:54.089Z,99832.03
2024-01-05T05:37:56.973Z,99825.16
2024-01-05T05:39:58.617Z,99826.72
2024-01-05T05:42:00.488Z,99824.16
2024-01-05T05:44:02.368Z,99830.38
2024-01-05T05:46:04.208Z,99829.50
2024-01-05T05:48:06.855Z,99838.19
2024-01-05T05:50:08.844Z,99827.78
2024-01-05T05:52:10.933Z,99833.00
2024-01-05T05:54:12.838Z,99827.72
2024-01-05T05:56:14.472Z,99833.16
2024-01-05T05:58:16.099Z,99837.50
2024-01-05T06:00:18.027Z,99836.56
2024-01-05T06:02:19.707Z,99841.16
2024-01-05T06:04:21.500Z,99853.31
2024-01-05T06:06:24.803Z,99853.31
2024-01-05T06:08:26.888Z,99856.84
2024-01-05T06:10:28.556Z,99867.41
2024-01-05T06:12:30.150Z,99866.56
2024-01-05T06:14:34.398Z,99870.97
2024-01-05T06:16:36.256Z,99870.13
2024-01-05T06:18:39.921Z,99870.97
2024-01-05T06:20:41.780Z,99870.28
2024-01-05T06:22:43.499Z,99880.66
2024-01-05T06:24:45.974Z,99879.78
2024-01-05T06:26:47.678Z,99881.50
2024-01-05T06:28:49.665Z,99887.63
2024-01-05T06:30:51.418Z,99885.06
2024-01-05T06:32:53.108Z,99875.44
2024-01-05T06:34:54.907Z,99880.72
2024-01-05T06:36:56.622Z,99876.31
2024-01-05T06:38:58.441Z,99877.34
2024-01-05T06:41:00.099Z,99879.09
2024-01-05T06:43:02.086Z,99882.59
2024-01-05T06:45:04.103Z,99881.72
2024-01-05T06:47:05.751Z,99878.34
2024-01-05T06:49:07.781Z,99880.03
2024-01-05T06:51:09.609Z,99886.16
2024-01-05T06:53:11.253Z,99883.53
2024-01-05T06:55:13.014Z,99884.47
2024-01-05T06:57:14.662Z,99893.19
2024-01-05T06:59:17.239Z,99887.09
2024-01-05T07:01:19.104Z,99895.81
2024-01-05T07:03:20.738Z,99891.53
2024-01-05T07:05:22.480Z,99900.34
2024-01-05T07:07:24.253Z,99899.41
2024-01-05T07:09:26.862Z,99901.28
2024-01-05T07:11:28.869Z,99907.56
2024-01-05T07:13:30.499Z,99908.25
2024-01-05T07:15:32.091Z,99899.88
2024-01-05T07:17:33.723Z,99918.00
2024-01-05T07:19:35.503Z,99907.56
2024-01-05T07:21:45.104Z,99916.28
2024-01-05T07:23:47.525Z,99918.00
2024-01-05T07:25:49.112Z,99918.09
2024-01-05T07:27:50.625Z,99924.28
2024-01-05T07:29:52.553Z,99926.81
2024-01-05T07:31:54.196Z,99939.16
2024-01-05T07:33:55.913Z,99929.53
2024-01-05T07:35:57.592Z,99928.72
2024-01-05T07:37:59.257Z,99930.47
2024-01-05T07:40:01.313Z,99933.03
2024-01-05T07:42:04.023Z,99940.06
2024-01-05T07:44:05.937Z,99929.69
2024-01-05T07:46:07.672Z,99935.91
2024-01-05T07:48:09.531Z,99931.56
2024-01-05T07:50:11.509Z,99930.72
2024-01-05T07:52:13.185Z,99937.59
2024-01-05T07:54:14.826Z,99941.09
2024-01-05T07:56:20.157Z,99940.22
2024-01-05T07:58:21.767Z,99942.94
2024-01-05T08:00:23.516Z,99945.50
2024-01-05T08:02:25.137Z,99946.44
2024-01-05T08:04:26.756Z,99949.09
2024-01-05T08:06:28.587Z,99957.81
2024-01-05T08:08:30.276Z,99957.91
2024-01-05T08:10:32.177Z,99949.91
2024-01-05T08:12:33.832Z,99960.53
2024-01-05T08:14:35.725Z,99958.75
2024-01-05T08:16:37.648Z,99958.75
2024-01-05T08:18:40.954Z,99960.53
2024-01-05T08:20:42.747Z,99965.72
2024-01-05T08:22:44.538Z,99965.72
2024-01-05T08:24:46.275Z,99962.31
2024-01-05T08:26:47.949Z,99968.44
2024-01-05T08:28:49.556Z,99964.00
2024-01-05T08:30:52.563Z,99971.06
2024-01-05T08:32:56.696Z,99974.53
2024-01-05T08:34:58.596Z,99974.47
2024-01-05T08:37:00.195Z,99965.81
2024-01-05T08:39:01.862Z,99961.38
2024-01-05T08:41:03.720Z,99977.09
2024-01-05T08:43:05.803Z,99968.34
2024-01-05T08:45:08.056Z,99966.56
2024-01-05T08:47:09.588Z,99969.19
2024-01-05T08:49:11.214Z,99977.19
2024-01-05T08:51:13.217Z,99976.25
2024-01-05T08:53:14.990Z,99981.44
2024-01-05T08:55:17.745Z,99984.94
2024-01-05T08:57:19.538Z,99978.78
2024-01-05T08:59:21.179Z,99988.41
2024-01-05T09:01:23.530Z,99991.03
2024-01-05T09:03:25.364Z,99998.00
2024-01-05T09:05:27.158Z,99991.03
2024-01-05T09:07:28.827Z,99986.69
2024-01-05T09:09:30.492Z,99997.00
2024-01-05T09:11:32.072Z,99996.00
2024-01-05T09:13:36.127Z,99996.84
2024-01-05T09:15:39.611Z,99996.00
2024-01-05T09:17:41.484Z,100007.31
2024-01-05T09:19:43.525Z,100009.94
2024-01-05T09:21:45.476Z,100012.41
2024-01-05T09:23:47.366Z,100014.97
2024-01-05T09:25:48.914Z,100020.00
2024-01-05T09:27:50.517Z,100008.84
2024-01-05T09:29:52.154Z,100023.47
2024-01-05T09:31:53.899Z,100029.53
2024-01-05T09:33:55.904Z,100025.88
2024-01-05T09:35:57.791Z,100028.53
2024-01-05T09:37:59.315Z,100029.34
2024-01-05T09:40:01.005Z,100034.56
2024-01-05T09:42:03.724Z,100029.34
2024-01-05T09:44:06.316Z,100039.84
2024-01-05T09:46:08.536Z,100042.47
2024-01-05T09:48:11.355Z,100037.34
2024-01-05T09:50:14.486Z,100039.28
2024-01-05T09:52:19.237Z,100038.97
2024-01-05T09:54:20.935Z,100034.56
2024-01-05T09:56:23.296Z,100032.88
2024-01-05T09:58:26.851Z,100041.50
2024-01-05T10:00:32.655Z,100040.75
2024-01-05T10:02:43.133Z,100045.25
2024-01-05T10:04:45.395Z,100053.38
2024-01-05T10:06:47.227Z,100049.53
2024-01-05T10:08:55.973Z,100052.53
2024-01-05T10:10:58.112Z,100046.50
2024-01-05T10:13:06.449Z,100063.22
2024-01-05T10:15:09.007Z,100062.34
2024-01-05T10:17:12.000Z,100060.50
2024-01-05T10:19:16.927Z,100062.91
2024-01-05T10:21:19.706Z,100060.28
2024-01-05T10:23:21.507Z,100063.75
2024-01-05T10:25:23.359Z,100062.34
2024-01-05T10:27:28.694Z,100060.97
2024-01-05T10:29:33.494Z,100054.94
2024-01-05T10:31:35.733Z,100051.34
2024-01-05T10:33:52.647Z,100047.97
2024-01-05T10:35:54.495Z,100045.09
2024-01-05T10:38:04.185Z,100037.13
2024-01-05T10:40:06.595Z,100035.28
2024-01-05T10:42:28.771Z,100039.53
2024-01-05T10:44:30.776Z,100032.56
2024-01-05T10:46:35.879Z,100039.66
2024-01-05T10:48:38.948Z,100035.31
2024-01-05T10:50:44.660Z,100036.50
2024-01-05T10:52:46.504Z,100036.41
2024-01-05T10:54:49.400Z,100045.16
2024-01-05T10:56:55.737Z,100047.03
2024-01-05T10:58:57.791Z,100048.03
2024-01-05T11:01:01.713Z,100043.53
2024-01-05T11:03:24.851Z,100038.84
2024-01-05T11:05:29.211Z,100037.97
2024-01-05T11:07:34.678Z,100037.72
2024-01-05T11:09:51.120Z,100027.75
2024-01-05T11:12:21.871Z,100037.19
2024-01-05T11:14:23.485Z,100040.94
2024-01-05T11:16:43.435Z,100032.84
2024-01-05T11:18:56.667Z,100035.00
2024-01-05T11:21:26.062Z,100036.66
2024-01-05T11:23:28.872Z,100045.41
2024-01-05T11:25:30.805Z,100036.59
2024-01-05T11:27:35.053Z,100036.09
2024-01-05T11:29:46.102Z,100035.19
2024-01-05T11:31:47.811Z,100030.06
2024-01-05T11:33:50.609Z,100037.91
2024-01-05T11:35:52.697Z,100036.28
2024-01-05T11:37:54.413Z,100036.50
2024-01-05T11:39:56.239Z,100038.75
2024-01-05T11:41:58.172Z,100034.63
2024-01-05T11:44:00.018Z,100039.59
2024-01-05T11:46:01.918Z,100032.38
2024-01-05T11:48:03.876Z,100034.25
2024-01-05T11:50:34.624Z,100029.13
2024-01-05T11:52:36.427Z,100032.16
2024-01-05T11:54:38.020Z,100029.38
2024-01-05T11:56:39.697Z,100032.09
2024-01-05T11:58:42.379Z,100017.22
2024-01-05T12:00:46.140Z,100036.91
2024-01-05T12:02:47.960Z,100027.91
2024-01-05T12:04:49.888Z,100026.38
2024-01-05T12:06:54.905Z,100025.72
2024-01-05T12:08:56.537Z,100018.00
2024-01-05T12:11:07.127Z,100025.66
2024-01-05T12:13:09.113Z,100022.94
2024-01-05T12:15:10.919Z,100018.53
2024-01-05T12:17:15.815Z,100022.03
2024-01-05T12:19:22.529Z,100026.28
2024-01-05T12:23:32.409Z,100027.38
2024-01-05T12:25:36.422Z,100026.41
2024-01-05T12:27:41.896Z,100030.00
2024-01-05T12:29:44.043Z,100024.88
2024-01-05T12:31:48.186Z,100025.81
2024-01-05T12:33:50.153Z,100020.75
2024-01-05T12:35:53.468Z,100018.84
2024-01-05T12:37:55.532Z,100021.78
2024-01-05T12:40:13.477Z,100021.41
2024-01-05T12:42:15.999Z,100018.69
2024-01-05T12:44:17.842Z,100008.31
2024-01-05T12:46:22.631Z,100023.88
2024-01-05T12:48:30.501Z,100013.13
2024-01-05T12:50:32.273Z,100014.13
2024-01-05T12:52:38.053Z,100022.09
2024-01-05T12:54:44.008Z,100014.22
2024-01-05T12:56:46.950Z,100010.63
2024-01-05T12:58:48.628Z,100014.03
2024-01-05T13:00:52.940Z,100014.91
2024-01-05T13:02:54.780Z,100007.84
2024-01-05T13:04:56.462Z,100013.91
2024-01-05T13:06:58.152Z,100012.28
2024-01-05T13:09:00.050Z,100005.22
2024-01-05T13:11:04.398Z,100017.28
2024-01-05T13:13:07.573Z,100006.00
2024-01-05T13:15:10.617Z,100007.75
2024-01-05T13:17:12.220Z,100011.88
2024-01-05T13:19:16.091Z,100009.06
2024-01-05T13:21:17.957Z,100016.97
2024-01-05T13:23:19.928Z,100020.38
2024-01-05T13:25:21.664Z,100016.13
2024-01-05T13:27:23.210Z,100016.13
2024-01-05T13:29:24.776Z,100016.31
2024-01-05T13:31:26.485Z,100017.53
2024-01-05T13:33:28.333Z,100024.03
2024-01-05T13:35:29.991Z,100026.72
2024-01-05T13:37:32.040Z,100032.69
2024-01-05T13:39:36.281Z,100028.22
2024-01-05T13:41:38.016Z,100023.88
2024-01-05T13:43:39.843Z,100030.72
2024-01-05T13:45:41.535Z,100022.03
2024-01-05T13:47:43.203Z,100033.34
2024-01-05T13:49:44.797Z,100024.47
2024-01-05T13:51:46.395Z,100031.31
2024-01-05T13:53:48.298Z,100031.31
2024-01-05T13:55:50.471Z,100025.19
2024-01-05T13:57:52.062Z,100026.97
2024-01-05T13:59:53.752Z,100029.38
2024-01-05T14:01:55.643Z,100040.94
2024-01-05T14:03:57.302Z,100037.28
2024-01-05T14:06:04.927Z,100041.25
2024-01-05T14:08:06.896Z,100044.47
2024-01-05T14:10:08.910Z,100050.06
2024-01-05T14:12:11.180Z,100047.59
2024-01-05T14:14:12.797Z,100052.91
2024-01-05T14:16:14.468Z,100055.63
2024-01-05T14:18:16.189Z,100052.06
2024-01-05T14:20:18.434Z,100041.38
2024-01-05T14:22:21.227Z,100055.69
2024-01-05T14:24:25.154Z,100048.19
2024-01-05T14:26:27.380Z,100053.38
2024-01-05T14:28:28.978Z,100064.16
2024-01-05T14:30:30.794Z,100059.22
2024-01-05T14:32:32.899Z,100060.28
2024-01-05T14:34:35.524Z,100058.50
2024-01-05T14:36:38.523Z,100057.88
2024-01-05T14:38:40.183Z,100065.72
2024-01-05T14:40:41.750Z,100057.72
2024-01-05T14:42:43.496Z,100069.03
2024-01-05T14:44:45.248Z,100056.88
2024-01-05T14:46:46.853Z,100065.53
2024-01-05T14:48:48.596Z,100067.03
2024-01-05T14:50:50.502Z,100066.31
2024-01-05T14:52:59.766Z,100076.03
2024-01-05T14:55:10.856Z,100076.84
2024-01-05T14:57:12.507Z,100075.53
2024-01-05T14:59:14.210Z,100076.84
2024-01-05T15:01:16.074Z,100071.03
2024-01-05T15:03:18.028Z,100077.38
2024-01-05T15:05:19.928Z,100075.63
2024-01-05T15:07:21.666Z,100081.13
2024-01-05T15:09:23.930Z,100075.00
2024-01-05T15:11:25.553Z,100072.38
2024-01-05T15:13:27.493Z,100069.66
2024-01-05T15:15:29.284Z,100080.97
2024-01-05T15:17:32.011Z,100073.81
2024-01-05T15:19:36.662Z,100080.34
2024-01-05T15:21:38.427Z,100079.34
2024-01-05T15:23:42.704Z,100080.84
2024-01-05T15:25:44.407Z,100080.94
2024-01-05T15:27:46.827Z,100090.09
2024-01-05T15:29:48.411Z,100083.44
2024-01-05T15:31:53.547Z,100082.75
2024-01-05T15:33:57.080Z,100094.19
2024-01-05T15:35:59.814Z,100093.28
2024-01-05T15:38:01.483Z,100093.59
2024-01-05T15:40:03.832Z,100098.94
2024-01-05T15:42:06.841Z,100101.50
2024-01-05T15:44:08.470Z,100105.13
2024-01-05T15:46:11.407Z,100101.41
2024-01-05T15:48:19.666Z,100108.38
2024-01-05T15:50:21.878Z,100105.75
2024-01-05T15:52:23.636Z,100108.34
2024-01-05T15:54:25.363Z,100108.47
2024-01-05T15:56:28.165Z,100108.59
2024-01-05T15:58:29.816Z,100103.34
2024-01-05T16:00:31.425Z,100110.50
2024-01-05T16:02:34.669Z,100105.34
2024-01-05T16:04:36.637Z,100106.38
2024-01-05T16:06:38.271Z,100103.88
2024-01-05T16:08:42.497Z,100109.78
2024-01-05T16:10:44.059Z,100119.16
2024-01-05T16:12:45.669Z,100127.91
2024-01-05T16:14:48.330Z,100119.75
2024-01-05T16:16:50.212Z,100130.50
2024-01-05T16:18:52.429Z,100132.84
2024-01-05T16:20:54.123Z,100136.34
2024-01-05T16:22:55.814Z,100133.31
2024-01-05T16:24:58.067Z,100133.66
2024-01-05T16:26:59.620Z,100133.72
2024-01-05T16:29:01.305Z,100127.53
2024-01-05T16:31:03.078Z,100134.19
2024-01-05T16:33:05.329Z,100135.13
2024-01-05T16:35:07.529Z,100131.47
2024-01-05T16:37:09.127Z,100134.41
2024-01-05T16:39:11.137Z,100133.84
2024-01-05T16:41:14.498Z,100133.00
2024-01-05T16:43:17.577Z,100133.00
2024-01-05T16:45:19.323Z,100138.38
2024-01-05T16:47:24.590Z,100131.69
2024-01-05T16:49:26.286Z,100127.34
2024-01-05T16:51:30.478Z,100142.00
2024-01-05T16:53:33.826Z,100144.78
2024-01-05T16:55:35.784Z,100144.69
2024-01-05T16:57:37.692Z,100142.75
2024-01-05T16:59:39.977Z,100133.75
2024-01-05T17:01:41.569Z,100150.03
2024-01-05T17:03:43.375Z,100138.72
2024-01-05T17:05:47.346Z,100134.25
2024-01-05T17:07:49.024Z,100142.13
2024-01-05T17:09:52.728Z,100147.50
2024-01-05T17:11:57.957Z,100146.63
2024-01-05T17:14:00.491Z,100156.31
2024-01-05T17:16:02.171Z,100160.00
2024-01-05T17:18:04.394Z,100154.91
2024-01-05T17:20:17.098Z,100161.16
2024-01-05T17:22:25.942Z,100165.50
2024-01-05T17:24:27.607Z,100167.34
2024-01-05T17:26:31.144Z,100169.97
2024-01-05T17:28:32.933Z,100167.44
2024-01-05T17:30:34.585Z,100164.81
2024-01-05T17:32:36.408Z,100170.06
2024-01-05T17:34:39.005Z,100182.16
2024-01-05T17:36:42.427Z,100185.78
2024-01-05T17:38:44.257Z,100190.13
2024-01-05T17:40:45.897Z,100194.47
2024-01-05T17:42:47.533Z,100183.28
2024-01-05T17:44:51.281Z,100205.91
2024-01-05T17:46:52.964Z,100196.09
2024-01-05T17:48:54.659Z,100204.91
2024-01-05T17:51:00.325Z,100202.38
2024-01-05T17:53:02.151Z,100198.16
2024-01-05T17:55:04.018Z,100202.66
2024-01-05T17:57:07.412Z,100206.97
2024-01-05T17:59:10.011Z,100212.09
2024-01-05T18:01:13.544Z,100209.56
2024-01-05T18:03:16.212Z,100206.84
2024-01-05T18:05:17.898Z,100207.84
2024-01-05T18:07:19.622Z,100206.22
2024-01-05T18:09:22.026Z,100201.94
2024-01-05T18:11:27.714Z,100219.28
2024-01-05T18:13:29.562Z,100220.28
2024-01-05T18:15:31.194Z,100221.13
2024-01-05T18:17:32.974Z,100219.00
2024-01-05T18:19:34.769Z,100229.25
2024-01-05T18:21:44.110Z,100230.03
2024-01-05T18:23:45.883Z,100234.59
2024-01-05T18:25:47.466Z,100233.72
2024-01-05T18:27:49.265Z,100234.50
2024-01-05T18:29:51.075Z,100243.34
2024-01-05T18:31:53.479Z,100241.84
2024-01-05T18:33:56.268Z,100252.31
2024-01-05T18:35:58.147Z,100261.28
2024-01-05T18:37:59.793Z,100257.69
2024-01-05T18:40:01.492Z,100262.25
2024-01-05T18:42:03.268Z,100267.75
2024-01-05T18:44:05.557Z,100272.06
2024-01-05T18:46:07.093Z,100272.31
2024-01-05T18:48:10.372Z,100272.50
2024-01-05T18:50:12.077Z,100270.63
2024-01-05T18:52:15.748Z,100282.13
2024-01-05T18:54:17.394Z,100279.63
2024-01-05T18:56:19.230Z,100288.44
2024-01-05T18:58:22.715Z,100284.16
2024-01-05T19:00:24.456Z,100288.50
2024-01-05T19:02:26.078Z,100294.59
2024-01-05T19:04:27.740Z,100298.19
2024-01-05T19:06:29.373Z,100292.94
2024-01-05T19:08:31.210Z,100293.88
2024-01-05T19:10:33.712Z,100308.75
2024-01-05T19:12:36.987Z,100300.03
2024-01-05T19:14:38.680Z,100298.31
2024-01-05T19:16:43.890Z,100309.63
2024-01-05T19:18:46.020Z,100308.91
2024-01-05T19:20:47.721Z,100308.03
2024-01-05T19:22:49.425Z,100322.00
2024-01-05T19:24:51.700Z,100325.47
2024-01-05T19:26:53.379Z,100322.00
2024-01-05T19:28:55.060Z,100323.78
2024-01-05T19:30:57.408Z,100329.06
2024-01-05T19:32:59.674Z,100329.78
2024-01-05T19:35:01.572Z,100323.63
2024-01-05T19:37:03.396Z,100336.44
2024-01-05T19:39:05.416Z,100332.91
2024-01-05T19:41:10.379Z,100338.13
2024-01-05T19:43:12.626Z,100332.97
2024-01-05T19:45:14.890Z,100340.78
2024-01-05T19:47:19.322Z,100338.22
2024-01-05T19:49:21.101Z,100339.03
2024-01-05T19:51:23.447Z,100331.97
2024-01-05T19:53:25.020Z,100341.66
2024-01-05T19:55:26.742Z,100344.41
2024-01-05T19:57:28.390Z,100329.63
2024-01-05T19:59:30.143Z,100331.34
2024-01-05T20:01:32.845Z,100334.09
2024-01-05T20:03:35.550Z,100344.56
2024-01-05T20:05:40.206Z,100344.63
2024-01-05T20:07:41.855Z,100347.31
2024-01-05T20:09:43.668Z,100349.94
2024-01-05T20:11:46.520Z,100351.03
2024-01-05T20:13:48.671Z,100355.28
2024-01-05T20:15:50.655Z,100352.78
2024-01-05T20:17:52.376Z,100358.03
2024-01-05T20:19:54.206Z,100351.22
2024-01-05T20:21:56.103Z,100358.38
2024-01-05T20:23:58.003Z,100356.59
2024-01-05T20:26:01.516Z,100357.41
2024-01-05T20:28:03.308Z,100356.59
2024-01-05T20:30:09.546Z,100360.09
2024-01-05T20:32:11.360Z,100362.78
2024-01-05T20:34:13.239Z,100358.38
2024-01-05T20:36:17.131Z,100366.22
2024-01-05T20:38:18.786Z,100359.19
2024-01-05T20:40:20.398Z,100367.00
2024-01-05T20:42:22.056Z,100362.78
2024-01-05T20:44:25.162Z,100366.28
2024-01-05T20:46:26.753Z,100362.94
2024-01-05T20:48:28.451Z,100362.94
2024-01-05T20:50:30.123Z,100364.72
2024-01-05T20:52:35.812Z,100369.19
2024-01-05T20:54:37.606Z,100364.84
2024-01-05T20:56:39.172Z,100360.50
2024-01-05T20:58:43.764Z,100366.63
2024-01-05T21:00:49.101Z,100370.09
2024-01-05T21:02:50.744Z,100373.63
2024-01-05T21:04:52.608Z,100368.44
2024-01-05T21:06:55.041Z,100365.91
2024-01-05T21:08:58.388Z,100369.44
2024-01-05T21:11:00.059Z,100367.72
2024-01-05T21:13:01.645Z,100367.81
2024-01-05T21:17:10.314Z,100362.59
2024-01-05T21:19:12.286Z,100357.47
2024-01-05T21:21:13.906Z,100354.94
2024-01-05T21:23:15.514Z,100363.50
2024-01-05T21:27:24.672Z,100368.00
2024-01-05T21:29:26.238Z,100363.72
2024-01-05T21:31:27.975Z,100361.09
2024-01-05T21:33:29.694Z,100362.78
2024-01-05T21:35:31.411Z,100375.00
2024-01-05T21:39:40.420Z,100369.81
2024-01-05T21:41:42.008Z,100377.59
2024-01-05T21:43:46.222Z,100376.72
2024-01-05T21:45:49.580Z,100379.34
2024-01-05T21:47:51.421Z,100375.88
2024-01-05T21:54:06.540Z,100375.22
2024-01-05T21:56:08.174Z,100375.00
2024-01-05T21:58:12.898Z,100381.19
2024-01-05T22:00:17.115Z,100382.16
2024-01-05T22:02:18.735Z,100376.06
2024-01-05T22:06:26.932Z,100389.22
2024-01-05T22:08:28.619Z,100387.44
2024-01-05T22:10:30.204Z,100377.16
2024-01-05T22:12:31.828Z,100398.81
2024-01-05T22:14:33.622Z,100390.06
2024-01-05T22:16:35.420Z,100398.03
2024-01-05T22:18:38.668Z,100399.75
2024-01-05T22:20:43.080Z,100390.13
2024-01-05T22:22:44.787Z,100397.09
2024-01-05T22:24:46.456Z,100396.28
2024-01-05T22:26:48.596Z,100405.91
2024-01-05T22:28:50.265Z,100405.00
2024-01-05T22:30:51.892Z,100401.56
2024-01-05T22:32:53.793Z,100403.34
2024-01-05T22:34:55.436Z,100407.75
2024-01-05T22:37:01.305Z,100403.53
2024-01-05T22:39:04.617Z,100407.81
2024-01-05T22:41:07.282Z,100409.59
2024-01-05T22:43:09.762Z,100411.38
2024-01-05T22:45:11.559Z,100412.28
2024-01-05T22:47:13.297Z,100411.44
2024-01-05T22:49:14.993Z,100414.00
2024-01-05T22:51:29.298Z,100418.41
2024-01-05T22:53:31.113Z,100419.31
2024-01-05T22:55:32.629Z,100421.94
2024-01-05T22:57:34.383Z,100419.41
2024-01-05T22:59:36.244Z,100415.88
2024-01-05T23:01:37.933Z,100421.16
2024-01-05T23:03:40.003Z,100419.41
2024-01-05T23:05:43.605Z,100415.97
2024-01-05T23:07:45.461Z,100412.53
2024-01-05T23:09:47.260Z,100417.00
2024-01-05T23:11:49.629Z,100419.56
2024-01-05T23:13:51.220Z,100415.22
2024-01-05T23:15:56.160Z,100417.00
2024-01-05T23:17:59.634Z,100430.09
2024-01-05T23:20:01.620Z,100426.59
2024-01-05T23:22:03.439Z,100427.56
2024-01-05T23:24:05.593Z,100429.28
2024-01-05T23:26:17.089Z,100424.16
2024-01-05T23:28:19.110Z,100424.09
2024-01-05T23:30:20.800Z,100427.56
2024-01-05T23:32:22.925Z,100425.94
2024-01-05T23:34:25.058Z,100429.44
2024-01-05T23:36:26.683Z,100438.16
2024-01-05T23:38:28.279Z,100437.50
2024-01-05T23:40:29.872Z,100436.50
2024-01-05T23:42:32.380Z,100451.38
2024-01-05T23:44:34.031Z,100449.66
2024-01-05T23:46:35.616Z,100441.78
2024-01-05T23:48:37.472Z,100451.44
2024-01-05T23:50:39.129Z,100446.19
2024-01-05T23:52:43.672Z,100448.81
2024-01-05T23:54:45.380Z,100445.38
2024-01-05T23:56:47.038Z,100459.34